Elwood, IL (60421)

6:18 PM CST on March 06, 2015 (GMT -0600)
Century East | Change Station
CLOSE
Current Station
Personal Weather Station
Location: Manhattan, IL
Elevation: 692 ft
Nearby Weather Stations

Elev 692 ft 41.42 °N, 87.97 °W | Updated 12 minutes ago

Clear
Clear
21.4 °F
Feels Like 14 °F
N
5.3
Wind Variable Wind from SW

Today
High -- | Low -- °F
--% Chance of Precip.
Yesterday
High -- | Low -- °F
Precip. -- in
6:19 AM 5:48 PM
Full, 99% visible
Pressure 30.22 in
Visibility 10.0 miles
Clouds Clear
Windchill 14 °F
Dew Point 15 °F
Humidity 77%
Rainfall in
Snow Depth Not available.
UV 0 out of 12
Pollen .20 out of 12
Air Quality Not available.
Flu Activity Not available.
METAR KJOT 062355Z AUTO 19008KT 10SM CLR M04/M08 A3022 RMK AO2 T10431085 11035 21062

More Conditions Fewer Conditions

Pressure 30.22 in
Visibility 10.0 miles
Clouds Clear
Windchill 14 °F
Dew Point 15 °F
Humidity 77%
Rainfall in
Snow Depth Not available.
UV 0 out of 12
Pollen .20 out of 12
Air Quality Not available.
Flu Activity Not available.
METAR KJOT 062355Z AUTO 19008KT 10SM CLR M04/M08 A3022 RMK AO2 T10431085 11035 21062

More Conditions Fewer Conditions

10-Day Weather Forecast

Almanac

Astronomy

Mar. 06, 2015 Rise Set
Actual Time
Civil Twilight
Nautical Twilight
Astronomical Twilight
Moon
Length of Visible Light
Length of Day
Tomorrow will be .
, % of the Moon is Illuminated

Today's Extremes

State Highs State Lows

Community

WunderPhotos

Upload Photos

1,803,466 photos uploaded!

WunderBlogs® & News

Nearby

Air Quality

  Air Quality AQ Index Pollutant
Not available.

Snow Depth

Station Depth Elevation

Earthquake Activity

City Distance Mag. Time & Date
Minimum magnitude displayed is 2.5.

Coastal Water Temperatures

Place Temperature

Nearby Weather Stations